Time;durP1;ratioP1;P1;durP2;ratioP2;P2;SDS_P1;SDS_P2;PMS_P1;PMS_P2;Temp;Humidity;BMP_temperature;BMP_pressure;BME280_temperature;BME280_humidity;BME280_pressure;Samples;Min_cycle;Max_cycle;Signal;HPM_P1;HPM_P2
2021/06/21 00:01:55;;;;;;;;;;;17.50;99.90;;;;;;5095656;28;19909;-72
2021/06/21 00:04:20;;;;;;;;;;;17.50;99.90;;;;;;5094986;28;19912;-72
2021/06/21 00:06:46;;;;;;;;;;;17.50;99.90;;;;;;5095652;28;19961;-72
2021/06/21 00:09:12;;;;;;;;;;;17.50;99.90;;;;;;5095805;28;20338;-72
2021/06/21 00:11:37;;;;;;;;;;;17.50;99.90;;;;;;5094900;28;19914;-72
2021/06/21 00:14:03;;;;;;;;;;;17.50;99.90;;;;;;5095513;28;19919;-72
2021/06/21 00:16:29;;;;;;;;;;;17.50;99.90;;;;;;5094390;28;20028;-71
2021/06/21 00:18:54;;;;;;;;;;;17.40;99.90;;;;;;5095503;28;19915;-72
2021/06/21 00:21:20;;;;;;;;;;;17.40;99.90;;;;;;5095400;28;20320;-71
2021/06/21 00:23:45;;;;;;;;;;;17.30;99.90;;;;;;5094473;28;19908;-71
2021/06/21 00:26:11;;;;;;;;;;;17.30;99.90;;;;;;5095142;28;19951;-72
2021/06/21 00:28:37;;;;;;;;;;;17.40;99.90;;;;;;5095276;28;19908;-71
2021/06/21 00:31:02;;;;;;;;;;;17.30;99.90;;;;;;5094568;28;19983;-71
2021/06/21 00:33:28;;;;;;;;;;;17.30;99.90;;;;;;5095048;28;20232;-71
2021/06/21 00:35:53;;;;;;;;;;;17.20;99.90;;;;;;5095486;28;19908;-72
2021/06/21 00:38:19;;;;;;;;;;;17.20;99.90;;;;;;5094365;28;19924;-71
2021/06/21 00:40:44;;;;;;;;;;;17.10;99.90;;;;;;5095413;28;19912;-71
2021/06/21 00:43:10;;;;;;;;;;;17.00;99.90;;;;;;5095163;28;19908;-71
2021/06/21 00:45:35;;;;;;;;;;;17.00;99.90;;;;;;5094581;28;19908;-71
2021/06/21 00:48:01;;;;;;;;;;;16.90;99.90;;;;;;5094827;28;20368;-72
2021/06/21 00:50:27;;;;;;;;;;;16.80;99.90;;;;;;5094882;28;20276;-71
2021/06/21 00:52:54;;;;;;;;;;;16.60;99.90;;;;;;5093835;28;19954;-71
2021/06/21 00:55:20;;;;;;;;;;;16.60;99.90;;;;;;5094079;28;19908;-71
2021/06/21 00:57:45;;;;;;;;;;;16.50;99.90;;;;;;5094207;28;20253;-71
2021/06/21 01:00:12;;;;;;;;;;;16.50;99.90;;;;;;5093857;28;19912;-70
2021/06/21 01:02:39;;;;;;;;;;;16.50;99.90;;;;;;5094143;28;19915;-71
2021/06/21 01:05:06;;;;;;;;;;;16.40;99.90;;;;;;5094455;28;19908;-71
2021/06/21 01:07:32;;;;;;;;;;;16.30;99.90;;;;;;5093889;28;19912;-71
2021/06/21 01:09:57;;;;;;;;;;;16.30;99.90;;;;;;5094247;28;19908;-70
2021/06/21 01:12:37;;;;;;;;;;;16.30;99.90;;;;;;5094039;28;19919;-71
2021/06/21 01:15:06;;;;;;;;;;;16.30;99.90;;;;;;5094273;28;19908;-71
2021/06/21 01:17:38;;;;;;;;;;;16.30;99.90;;;;;;5094194;28;19916;-71
2021/06/21 01:20:15;;;;;;;;;;;16.30;99.90;;;;;;5093440;28;19909;-71
2021/06/21 01:22:59;;;;;;;;;;;16.20;99.90;;;;;;5094109;28;19919;-71
2021/06/21 01:25:43;;;;;;;;;;;16.20;99.90;;;;;;5094191;28;19946;-72
2021/06/21 01:28:30;;;;;;;;;;;16.10;99.90;;;;;;5093270;28;19909;-72
2021/06/21 01:31:06;;;;;;;;;;;16.00;99.90;;;;;;5093971;28;19908;-71
2021/06/21 01:33:32;;;;;;;;;;;16.00;99.90;;;;;;5093868;28;19919;-71
2021/06/21 01:35:59;;;;;;;;;;;16.00;99.90;;;;;;5093263;28;19987;-72
2021/06/21 01:38:25;;;;;;;;;;;16.00;99.90;;;;;;5093577;28;19964;-71
2021/06/21 01:40:53;;;;;;;;;;;15.90;99.90;;;;;;5093191;28;19912;-71
2021/06/21 01:43:21;;;;;;;;;;;15.90;99.90;;;;;;5093632;28;20224;-72
2021/06/21 01:45:47;;;;;;;;;;;15.90;99.90;;;;;;5093557;28;19919;-72
2021/06/21 01:48:14;;;;;;;;;;;15.70;99.90;;;;;;5092974;28;20055;-72
2021/06/21 01:50:41;;;;;;;;;;;15.80;99.90;;;;;;5093525;28;19960;-72
2021/06/21 01:53:08;;;;;;;;;;;15.70;99.90;;;;;;5093648;28;19970;-72
2021/06/21 01:55:35;;;;;;;;;;;15.70;99.90;;;;;;5092859;28;19965;-72
2021/06/21 01:58:01;;;;;;;;;;;15.70;99.90;;;;;;5093431;28;19916;-72
2021/06/21 02:00:27;;;;;;;;;;;15.70;99.90;;;;;;5093360;28;19908;-72
2021/06/21 02:02:53;;;;;;;;;;;15.70;99.90;;;;;;5092892;28;19923;-71
2021/06/21 02:05:18;;;;;;;;;;;15.60;99.90;;;;;;5093443;28;20004;-72
2021/06/21 02:07:45;;;;;;;;;;;15.60;99.90;;;;;;5092533;28;19989;-73
2021/06/21 02:10:11;;;;;;;;;;;15.50;99.90;;;;;;5092606;28;19915;-71
2021/06/21 02:12:37;;;;;;;;;;;15.40;99.90;;;;;;5093186;28;19908;-73
2021/06/21 02:15:04;;;;;;;;;;;15.30;99.90;;;;;;5093066;28;19934;-71
2021/06/21 02:17:30;;;;;;;;;;;15.20;99.90;;;;;;5092700;28;19956;-72
2021/06/21 02:19:56;;;;;;;;;;;15.20;99.90;;;;;;5093138;28;19908;-72
2021/06/21 02:22:22;;;;;;;;;;;15.10;99.90;;;;;;5093255;28;19977;-72
2021/06/21 02:24:47;;;;;;;;;;;15.10;99.90;;;;;;5090953;28;19990;-73
2021/06/21 02:27:14;;;;;;;;;;;15.00;99.90;;;;;;5093083;28;20377;-72
2021/06/21 02:29:40;;;;;;;;;;;14.90;99.90;;;;;;5093313;28;19915;-73
2021/06/21 02:32:06;;;;;;;;;;;15.00;99.90;;;;;;5092326;28;20333;-73
2021/06/21 02:34:31;;;;;;;;;;;14.90;99.90;;;;;;5093102;28;19915;-73
2021/06/21 02:36:57;;;;;;;;;;;14.90;99.90;;;;;;5093153;28;19916;-73
2021/06/21 02:39:22;;;;;;;;;;;14.90;99.90;;;;;;5092054;28;19958;-73
2021/06/21 02:41:48;;;;;;;;;;;14.90;99.90;;;;;;5093060;28;19935;-74
2021/06/21 02:44:13;;;;;;;;;;;14.80;99.90;;;;;;5092237;28;19918;-74
2021/06/21 02:46:39;;;;;;;;;;;14.80;99.90;;;;;;5093044;28;20030;-73
2021/06/21 02:49:04;;;;;;;;;;;14.80;99.90;;;;;;5092947;28;20348;-73
2021/06/21 02:51:52;;;;;;;;;;;14.80;99.90;;;;;;5092392;28;20324;-72
2021/06/21 02:54:36;;;;;;;;;;;14.80;99.90;;;;;;5093071;28;20253;-72
2021/06/21 02:57:02;;;;;;;;;;;14.80;99.90;;;;;;5093090;28;19969;-73
2021/06/21 02:59:28;;;;;;;;;;;14.80;99.90;;;;;;5092619;28;20002;-73
2021/06/21 03:01:54;;;;;;;;;;;14.80;99.90;;;;;;5093136;28;19908;-72
2021/06/21 03:04:21;;;;;;;;;;;14.70;99.90;;;;;;5093051;28;20057;-72
2021/06/21 03:06:47;;;;;;;;;;;14.70;99.90;;;;;;5092254;28;19915;-72
2021/06/21 03:09:14;;;;;;;;;;;14.60;99.90;;;;;;5092650;28;19912;-72
2021/06/21 03:11:42;;;;;;;;;;;14.60;99.90;;;;;;5092794;28;19954;-72
2021/06/21 03:14:07;;;;;;;;;;;14.60;99.90;;;;;;5091924;28;20003;-72
2021/06/21 03:16:33;;;;;;;;;;;14.50;99.90;;;;;;5092234;28;19947;-73
2021/06/21 03:18:59;;;;;;;;;;;14.50;99.90;;;;;;5093875;28;19950;-72
2021/06/21 03:21:25;;;;;;;;;;;14.50;99.90;;;;;;5095645;28;20363;-72
2021/06/21 03:23:51;;;;;;;;;;;14.40;99.90;;;;;;5096239;28;19912;-72
2021/06/21 03:26:16;;;;;;;;;;;14.40;99.90;;;;;;5095582;28;19908;-72
2021/06/21 03:28:42;;;;;;;;;;;14.40;99.90;;;;;;5096432;28;19915;-72
2021/06/21 03:31:07;;;;;;;;;;;14.40;99.90;;;;;;5096277;28;19961;-72
2021/06/21 03:33:34;;;;;;;;;;;14.40;99.90;;;;;;5095407;28;20011;-72
2021/06/21 03:35:59;;;;;;;;;;;14.40;99.90;;;;;;5096056;28;19908;-72
2021/06/21 03:38:26;;;;;;;;;;;14.40;99.90;;;;;;5095839;28;19916;-71
2021/06/21 03:40:52;;;;;;;;;;;14.40;99.90;;;;;;5095245;28;19919;-72
2021/06/21 03:43:19;;;;;;;;;;;14.40;99.90;;;;;;5095921;28;19912;-72
2021/06/21 03:45:45;;;;;;;;;;;14.40;99.90;;;;;;5095717;28;20348;-72
2021/06/21 03:48:10;;;;;;;;;;;14.40;99.90;;;;;;5095028;28;19915;-72
2021/06/21 03:50:36;;;;;;;;;;;14.40;99.90;;;;;;5095667;28;19983;-72
2021/06/21 03:53:02;;;;;;;;;;;14.30;99.90;;;;;;5095486;28;19950;-72
2021/06/21 03:55:27;;;;;;;;;;;14.30;99.90;;;;;;5094855;28;20386;-72
2021/06/21 03:57:55;;;;;;;;;;;14.30;99.90;;;;;;5095418;28;19920;-72
2021/06/21 04:00:22;;;;;;;;;;;14.30;99.90;;;;;;5095314;28;19908;-72
2021/06/21 04:02:47;;;;;;;;;;;14.30;99.90;;;;;;5094635;28;19911;-73
2021/06/21 04:05:13;;;;;;;;;;;14.20;99.90;;;;;;5095515;28;19919;-73
2021/06/21 04:07:39;;;;;;;;;;;14.20;99.90;;;;;;5095133;28;20008;-73
2021/06/21 04:10:05;;;;;;;;;;;14.20;99.90;;;;;;5094265;28;19915;-73
2021/06/21 04:12:32;;;;;;;;;;;14.10;99.90;;;;;;5095223;28;20379;-73
2021/06/21 04:14:57;;;;;;;;;;;14.10;99.90;;;;;;5095189;28;20053;-73
2021/06/21 04:17:23;;;;;;;;;;;14.10;99.90;;;;;;5094205;28;19999;-72
2021/06/21 04:19:50;;;;;;;;;;;14.10;99.90;;;;;;5095089;28;20344;-73
2021/06/21 04:22:15;;;;;;;;;;;14.10;99.90;;;;;;5095289;28;19991;-72
2021/06/21 04:24:41;;;;;;;;;;;14.00;99.90;;;;;;5094229;28;19908;-72
2021/06/21 04:27:06;;;;;;;;;;;14.00;99.90;;;;;;5095183;28;19954;-72
2021/06/21 04:29:32;;;;;;;;;;;14.00;99.90;;;;;;5094816;28;20348;-73
2021/06/21 04:31:57;;;;;;;;;;;14.00;99.90;;;;;;5093715;28;19916;-73
2021/06/21 04:34:23;;;;;;;;;;;13.90;99.90;;;;;;5095047;28;19957;-73
2021/06/21 04:36:48;;;;;;;;;;;13.90;99.90;;;;;;5093827;28;19990;-73
2021/06/21 04:39:13;;;;;;;;;;;13.90;99.90;;;;;;5094533;28;19927;-73
2021/06/21 04:41:39;;;;;;;;;;;13.90;99.90;;;;;;5094886;28;19908;-73
2021/06/21 04:44:04;;;;;;;;;;;13.80;99.90;;;;;;5094180;28;19908;-73
2021/06/21 04:46:33;;;;;;;;;;;13.80;99.90;;;;;;5095057;28;20348;-73
2021/06/21 04:48:59;;;;;;;;;;;13.90;99.90;;;;;;5094679;28;19908;-74
2021/06/21 04:51:25;;;;;;;;;;;13.90;99.90;;;;;;5094076;28;19908;-74
2021/06/21 04:53:50;;;;;;;;;;;13.80;99.90;;;;;;5094858;28;19909;-74
2021/06/21 04:56:16;;;;;;;;;;;13.80;99.90;;;;;;5094693;28;19908;-74
2021/06/21 04:58:42;;;;;;;;;;;13.80;99.90;;;;;;5093871;28;19981;-74
2021/06/21 05:01:08;;;;;;;;;;;13.80;99.90;;;;;;5095010;28;19916;-74
2021/06/21 05:03:36;;;;;;;;;;;13.80;99.90;;;;;;5094572;28;19912;-74
2021/06/21 05:06:02;;;;;;;;;;;13.80;99.90;;;;;;5093904;28;19908;-73
2021/06/21 05:08:28;;;;;;;;;;;13.80;99.90;;;;;;5094577;28;19932;-74
2021/06/21 05:10:53;;;;;;;;;;;13.80;99.90;;;;;;5094662;28;20351;-74
2021/06/21 05:13:19;;;;;;;;;;;13.80;99.90;;;;;;5093565;28;19908;-74
2021/06/21 05:15:44;;;;;;;;;;;13.80;99.90;;;;;;5094293;28;19922;-74
2021/06/21 05:18:10;;;;;;;;;;;13.80;99.90;;;;;;5094046;28;20398;-74
2021/06/21 05:20:35;;;;;;;;;;;13.80;99.90;;;;;;5093608;28;20279;-73
2021/06/21 05:23:00;;;;;;;;;;;13.80;99.90;;;;;;5094297;28;19978;-73
2021/06/21 05:25:26;;;;;;;;;;;13.80;99.90;;;;;;5094122;28;19908;-72
2021/06/21 05:27:52;;;;;;;;;;;13.80;99.90;;;;;;5093272;28;20328;-72
2021/06/21 05:30:18;;;;;;;;;;;13.80;99.90;;;;;;5093834;28;19908;-74
2021/06/21 05:32:43;;;;;;;;;;;13.80;99.90;;;;;;5093830;28;19918;-74
2021/06/21 05:35:11;;;;;;;;;;;13.80;99.90;;;;;;5093218;28;20003;-73
2021/06/21 05:37:37;;;;;;;;;;;13.80;99.90;;;;;;5093902;28;19924;-74
2021/06/21 05:40:03;;;;;;;;;;;13.80;99.90;;;;;;5092634;28;19920;-73
2021/06/21 05:42:28;;;;;;;;;;;13.80;99.90;;;;;;5093496;28;19912;-73
2021/06/21 05:44:54;;;;;;;;;;;13.80;99.90;;;;;;5093437;28;19961;-73
2021/06/21 05:47:19;;;;;;;;;;;13.80;99.90;;;;;;5092995;28;19915;-74
2021/06/21 05:49:44;;;;;;;;;;;13.90;99.90;;;;;;5093414;28;20360;-73
2021/06/21 05:52:10;;;;;;;;;;;13.90;99.90;;;;;;5093372;28;19962;-74
2021/06/21 05:54:38;;;;;;;;;;;13.90;99.90;;;;;;5092926;28;19916;-73
2021/06/21 05:57:04;;;;;;;;;;;13.90;99.90;;;;;;5093405;28;19970;-72
2021/06/21 05:59:30;;;;;;;;;;;13.90;99.90;;;;;;5093585;28;19908;-74
2021/06/21 06:01:55;;;;;;;;;;;13.90;99.90;;;;;;5092637;28;19908;-73
2021/06/21 06:04:20;;;;;;;;;;;14.00;99.90;;;;;;5093639;28;20537;-74
2021/06/21 06:06:46;;;;;;;;;;;14.00;99.90;;;;;;5093447;28;20002;-74
2021/06/21 06:09:11;;;;;;;;;;;14.00;99.90;;;;;;5092704;28;19931;-73
2021/06/21 06:11:37;;;;;;;;;;;14.00;99.90;;;;;;5093159;28;19919;-74
2021/06/21 06:14:02;;;;;;;;;;;14.00;99.90;;;;;;5093520;28;19919;-75
2021/06/21 06:16:28;;;;;;;;;;;14.00;99.90;;;;;;5092572;28;20364;-73
2021/06/21 06:18:53;;;;;;;;;;;14.10;99.90;;;;;;5093058;28;20342;-73
2021/06/21 06:21:19;;;;;;;;;;;14.10;99.90;;;;;;5093264;28;19914;-74
2021/06/21 06:23:44;;;;;;;;;;;14.10;99.90;;;;;;5092594;28;19908;-73
2021/06/21 06:26:10;;;;;;;;;;;14.10;99.90;;;;;;5093127;28;19915;-73
2021/06/21 06:28:38;;;;;;;;;;;14.10;99.90;;;;;;5093060;28;19913;-74
2021/06/21 06:31:04;;;;;;;;;;;14.10;99.90;;;;;;5092175;28;19915;-74
2021/06/21 06:33:29;;;;;;;;;;;14.20;99.90;;;;;;5093108;28;19908;-74
2021/06/21 06:35:55;;;;;;;;;;;14.10;99.90;;;;;;5093032;28;19908;-75
2021/06/21 06:38:20;;;;;;;;;;;14.10;99.90;;;;;;5092481;28;19916;-74
2021/06/21 06:40:46;;;;;;;;;;;14.10;99.90;;;;;;5092860;28;19920;-74
2021/06/21 06:43:11;;;;;;;;;;;14.10;99.90;;;;;;5092438;28;19908;-74
2021/06/21 06:45:37;;;;;;;;;;;14.10;99.90;;;;;;5093024;28;19908;-74
2021/06/21 06:48:02;;;;;;;;;;;14.20;99.90;;;;;;5092747;28;19912;-73
2021/06/21 06:50:28;;;;;;;;;;;14.10;99.90;;;;;;5092295;28;19908;-75
2021/06/21 06:52:55;;;;;;;;;;;14.10;99.90;;;;;;5092982;28;20279;-74
2021/06/21 06:58:06;;;;;;;;;;;14.10;99.90;;;;;;5096074;28;19923;-73
2021/06/21 07:00:34;;;;;;;;;;;14.10;99.90;;;;;;5097366;28;19919;-73
2021/06/21 07:02:59;;;;;;;;;;;14.00;99.90;;;;;;5096670;28;20007;-73
2021/06/21 07:05:25;;;;;;;;;;;14.10;99.90;;;;;;5095890;28;19959;-73
2021/06/21 07:07:50;;;;;;;;;;;14.10;99.90;;;;;;5096510;28;19908;-73
2021/06/21 07:10:16;;;;;;;;;;;14.10;99.90;;;;;;5096660;28;19930;-73
2021/06/21 07:12:41;;;;;;;;;;;14.10;99.90;;;;;;5095513;28;19908;-73
2021/06/21 07:15:07;;;;;;;;;;;14.00;99.90;;;;;;5096240;28;19908;-73
2021/06/21 07:17:33;;;;;;;;;;;14.00;99.90;;;;;;5096414;28;19978;-73
2021/06/21 07:19:58;;;;;;;;;;;14.00;99.90;;;;;;5095747;28;19921;-73
2021/06/21 07:22:23;;;;;;;;;;;14.00;99.90;;;;;;5096378;28;19908;-73
2021/06/21 07:24:51;;;;;;;;;;;14.10;99.90;;;;;;5096297;28;19908;-72
2021/06/21 07:27:16;;;;;;;;;;;14.10;99.90;;;;;;5095513;28;19908;-75
2021/06/21 07:29:42;;;;;;;;;;;14.20;99.90;;;;;;5096304;28;20264;-72
2021/06/21 07:32:07;;;;;;;;;;;14.10;99.90;;;;;;5096276;28;19909;-73
2021/06/21 07:34:34;;;;;;;;;;;14.10;99.90;;;;;;5095350;28;19912;-75
2021/06/21 07:37:00;;;;;;;;;;;14.20;99.90;;;;;;5096159;28;20333;-74
2021/06/21 07:39:25;;;;;;;;;;;14.20;99.90;;;;;;5095733;28;19920;-75
2021/06/21 07:41:51;;;;;;;;;;;14.30;99.90;;;;;;5095874;28;20376;-75
2021/06/21 07:44:16;;;;;;;;;;;14.20;99.90;;;;;;5096117;28;19912;-73
2021/06/21 07:46:42;;;;;;;;;;;14.30;99.90;;;;;;5095333;28;19908;-73
2021/06/21 07:49:08;;;;;;;;;;;14.30;99.90;;;;;;5095799;28;19991;-74
2021/06/21 07:51:33;;;;;;;;;;;14.30;99.90;;;;;;5095967;28;20007;-74
2021/06/21 07:53:59;;;;;;;;;;;14.30;99.90;;;;;;5095069;28;20355;-73
2021/06/21 07:56:25;;;;;;;;;;;14.30;99.90;;;;;;5095789;28;20371;-74
2021/06/21 07:58:50;;;;;;;;;;;14.20;99.90;;;;;;5095500;28;19916;-74
2021/06/21 08:01:16;;;;;;;;;;;14.20;99.90;;;;;;5095185;28;19954;-74
2021/06/21 08:03:42;;;;;;;;;;;14.20;99.90;;;;;;5095673;28;19908;-74
2021/06/21 08:06:11;;;;;;;;;;;14.20;99.90;;;;;;5095769;28;19909;-73
2021/06/21 08:08:37;;;;;;;;;;;14.20;99.90;;;;;;5094879;28;19946;-74
2021/06/21 08:11:02;;;;;;;;;;;14.20;99.90;;;;;;5095397;28;19962;-74
2021/06/21 08:13:28;;;;;;;;;;;14.20;99.90;;;;;;5095528;28;20306;-74
2021/06/21 08:15:53;;;;;;;;;;;14.10;99.90;;;;;;5094687;28;20322;-74
2021/06/21 08:18:18;;;;;;;;;;;14.20;99.90;;;;;;5095404;28;19924;-73
2021/06/21 08:20:44;;;;;;;;;;;14.20;99.90;;;;;;5095406;28;19908;-74
2021/06/21 08:23:11;;;;;;;;;;;14.20;99.90;;;;;;5094684;28;19961;-76
2021/06/21 08:25:37;;;;;;;;;;;14.20;99.90;;;;;;5095723;28;20282;-73
2021/06/21 08:28:03;;;;;;;;;;;14.20;99.90;;;;;;5095154;28;19912;-74
2021/06/21 08:30:29;;;;;;;;;;;14.20;99.90;;;;;;5094419;28;19909;-73
2021/06/21 08:32:54;;;;;;;;;;;14.10;99.90;;;;;;5094750;28;19908;-73
2021/06/21 08:35:20;;;;;;;;;;;14.10;99.90;;;;;;5095006;28;20045;-73
2021/06/21 08:37:45;;;;;;;;;;;14.10;99.90;;;;;;5094194;28;19939;-74
2021/06/21 08:40:12;;;;;;;;;;;14.10;99.90;;;;;;5094760;28;19927;-74
2021/06/21 08:42:38;;;;;;;;;;;14.10;99.90;;;;;;5094954;28;19908;-74
2021/06/21 08:45:04;;;;;;;;;;;14.20;99.90;;;;;;5094014;28;19915;-74
2021/06/21 08:47:31;;;;;;;;;;;14.20;99.90;;;;;;5095088;28;19919;-75
2021/06/21 08:49:56;;;;;;;;;;;14.20;99.90;;;;;;5094143;28;19908;-74
2021/06/21 08:52:25;;;;;;;;;;;14.30;99.90;;;;;;5095002;28;19909;-74
2021/06/21 08:54:51;;;;;;;;;;;14.30;99.90;;;;;;5094804;28;19912;-74
2021/06/21 08:57:17;;;;;;;;;;;14.40;99.90;;;;;;5094140;28;20271;-74
2021/06/21 08:59:42;;;;;;;;;;;14.40;99.90;;;;;;5094594;28;20137;-74
2021/06/21 09:02:08;;;;;;;;;;;14.50;99.90;;;;;;5094391;28;19969;-75
2021/06/21 09:04:38;;;;;;;;;;;14.50;99.90;;;;;;5093725;28;19908;-74
2021/06/21 09:07:17;;;;;;;;;;;14.50;99.90;;;;;;5094565;28;19939;-74
2021/06/21 09:09:43;;;;;;;;;;;14.60;99.90;;;;;;5094541;28;19987;-74
2021/06/21 09:12:09;;;;;;;;;;;14.70;99.90;;;;;;5093892;28;20010;-74
2021/06/21 09:14:35;;;;;;;;;;;14.80;99.90;;;;;;5094279;28;19908;-74
2021/06/21 09:17:02;;;;;;;;;;;14.80;99.90;;;;;;5093537;28;20007;-74
2021/06/21 09:19:28;;;;;;;;;;;14.90;99.90;;;;;;5093469;28;19908;-74
2021/06/21 09:21:54;;;;;;;;;;;14.90;99.90;;;;;;5094222;28;19915;-75
2021/06/21 09:24:22;;;;;;;;;;;14.90;99.90;;;;;;5094217;28;19961;-74
2021/06/21 09:26:49;;;;;;;;;;;14.90;99.90;;;;;;5093528;28;20221;-74
2021/06/21 09:29:15;;;;;;;;;;;15.00;99.90;;;;;;5094192;28;19961;-75
2021/06/21 09:31:50;;;;;;;;;;;15.00;99.90;;;;;;5094034;28;20283;-75
2021/06/21 09:34:17;;;;;;;;;;;15.10;99.90;;;;;;5093363;28;19940;-74
2021/06/21 09:36:43;;;;;;;;;;;15.00;99.90;;;;;;5093733;28;20320;-73
2021/06/21 09:39:20;;;;;;;;;;;14.90;99.90;;;;;;5093208;28;19915;-74
2021/06/21 09:42:03;;;;;;;;;;;14.80;99.90;;;;;;5093756;28;20383;-74
2021/06/21 09:44:36;;;;;;;;;;;14.80;99.90;;;;;;5093971;28;19940;-75
2021/06/21 09:47:17;;;;;;;;;;;14.60;99.90;;;;;;5092859;28;19954;-74
2021/06/21 09:50:01;;;;;;;;;;;14.60;99.90;;;;;;5093583;28;19914;-75
2021/06/21 09:52:33;;;;;;;;;;;14.50;99.90;;;;;;5093864;28;20004;-74
2021/06/21 09:55:08;;;;;;;;;;;14.50;99.90;;;;;;5093227;28;19914;-75
2021/06/21 09:57:34;;;;;;;;;;;14.50;99.90;;;;;;5093759;28;20434;-74
2021/06/21 09:59:59;;;;;;;;;;;14.50;99.90;;;;;;5093722;28;19909;-74
2021/06/21 10:02:26;;;;;;;;;;;14.50;99.90;;;;;;5092908;28;20400;-74
2021/06/21 10:04:52;;;;;;;;;;;14.50;99.90;;;;;;5093586;28;19915;-74
2021/06/21 10:07:27;;;;;;;;;;;14.50;99.90;;;;;;5092491;28;20292;-75
2021/06/21 10:09:54;;;;;;;;;;;14.60;99.90;;;;;;5093234;28;19908;-76
2021/06/21 10:12:20;;;;;;;;;;;14.60;99.90;;;;;;5093481;28;19908;-76
2021/06/21 10:14:45;;;;;;;;;;;14.70;99.90;;;;;;5092737;28;20396;-76
2021/06/21 10:17:11;;;;;;;;;;;14.70;99.90;;;;;;5093280;28;19923;-74
2021/06/21 10:19:36;;;;;;;;;;;14.70;99.90;;;;;;5093294;28;19908;-74
2021/06/21 10:22:02;;;;;;;;;;;14.60;99.90;;;;;;5092547;28;19951;-75
2021/06/21 10:24:31;;;;;;;;;;;14.60;99.90;;;;;;5093201;28;19915;-75
2021/06/21 10:26:57;;;;;;;;;;;14.50;99.90;;;;;;5093287;28;19908;-74
2021/06/21 10:29:22;;;;;;;;;;;14.50;99.90;;;;;;5094607;28;19912;-74
2021/06/21 10:31:48;;;;;;;;;;;14.50;99.90;;;;;;5097371;28;19909;-74
2021/06/21 10:34:15;;;;;;;;;;;14.50;99.90;;;;;;5097525;28;19912;-76
2021/06/21 10:36:45;;;;;;;;;;;14.40;99.90;;;;;;5096542;28;19940;-74
2021/06/21 10:39:16;;;;;;;;;;;14.40;99.90;;;;;;5097072;28;20014;-75
2021/06/21 10:42:08;;;;;;;;;;;14.40;99.90;;;;;;5097507;28;19912;-75
2021/06/21 10:44:49;;;;;;;;;;;14.30;99.90;;;;;;5096471;28;19957;-75
2021/06/21 10:47:24;;;;;;;;;;;14.30;99.90;;;;;;5097268;28;19908;-75
2021/06/21 10:49:53;;;;;;;;;;;14.20;99.90;;;;;;5096228;28;19915;-75
2021/06/21 10:52:35;;;;;;;;;;;14.10;99.90;;;;;;5097161;28;19908;-76
2021/06/21 10:55:19;;;;;;;;;;;14.10;99.90;;;;;;5096986;28;19915;-76
2021/06/21 10:57:45;;;;;;;;;;;14.20;99.90;;;;;;5096037;28;19916;-75
2021/06/21 11:00:12;;;;;;;;;;;14.20;99.90;;;;;;5096678;28;19908;-75
2021/06/21 11:02:37;;;;;;;;;;;14.20;99.90;;;;;;5096768;28;20347;-74
2021/06/21 11:05:03;;;;;;;;;;;14.30;99.90;;;;;;5096180;28;19918;-75
2021/06/21 11:07:28;;;;;;;;;;;14.30;99.90;;;;;;5096693;28;19915;-75
2021/06/21 11:09:55;;;;;;;;;;;14.40;99.90;;;;;;5096450;28;19909;-75
2021/06/21 11:12:21;;;;;;;;;;;14.40;99.90;;;;;;5095863;28;19931;-74
2021/06/21 11:15:08;;;;;;;;;;;14.50;99.90;;;;;;5096697;28;20356;-74
2021/06/21 11:17:49;;;;;;;;;;;14.50;99.90;;;;;;5095813;28;20006;-74
2021/06/21 11:20:34;;;;;;;;;;;14.60;99.90;;;;;;5096426;28;19908;-74
2021/06/21 11:23:04;;;;;;;;;;;14.60;99.90;;;;;;5096526;28;19955;-76
2021/06/21 11:25:31;;;;;;;;;;;14.70;99.90;;;;;;5095504;28;20358;-74
2021/06/21 11:27:58;;;;;;;;;;;14.80;99.90;;;;;;5096298;28;19908;-74
2021/06/21 11:30:27;;;;;;;;;;;14.90;99.90;;;;;;5096189;28;20241;-75
2021/06/21 11:32:54;;;;;;;;;;;14.90;99.90;;;;;;5095487;28;19916;-75
2021/06/21 11:35:38;;;;;;;;;;;14.90;99.90;;;;;;5096099;28;20397;-76
2021/06/21 11:38:39;;;;;;;;;;;15.00;99.90;;;;;;5095815;28;19923;-76
2021/06/21 11:41:18;;;;;;;;;;;15.20;99.90;;;;;;5073106;28;20376;-76
2021/06/21 11:43:46;;;;;;;;;;;15.30;99.90;;;;;;5093270;28;19912;-76
2021/06/21 11:46:31;;;;;;;;;;;15.20;99.90;;;;;;5095161;28;19919;-76
2021/06/21 11:49:17;;;;;;;;;;;15.30;99.90;;;;;;5095591;28;19908;-76
2021/06/21 11:52:00;;;;;;;;;;;15.20;99.90;;;;;;5095625;28;20371;-76
2021/06/21 11:54:26;;;;;;;;;;;14.90;99.90;;;;;;5095278;28;20268;-76
2021/06/21 11:57:00;;;;;;;;;;;15.10;99.90;;;;;;5095910;28;19915;-76
2021/06/21 11:59:34;;;;;;;;;;;15.10;99.90;;;;;;5095903;28;19908;-76
2021/06/21 12:02:01;;;;;;;;;;;15.00;99.90;;;;;;5094965;28;19985;-76
2021/06/21 12:04:27;;;;;;;;;;;15.00;99.90;;;;;;5095530;28;20003;-76
2021/06/21 12:06:53;;;;;;;;;;;15.00;99.90;;;;;;5094844;28;20344;-76
2021/06/21 12:09:18;;;;;;;;;;;15.00;99.90;;;;;;5095678;28;19954;-76
2021/06/21 12:11:47;;;;;;;;;;;15.10;99.90;;;;;;5095701;28;19986;-76
2021/06/21 12:14:13;;;;;;;;;;;15.10;99.90;;;;;;5094728;28;19953;-76
2021/06/21 12:16:43;;;;;;;;;;;15.10;99.90;;;;;;5095481;28;20228;-76
2021/06/21 12:19:08;;;;;;;;;;;15.20;99.90;;;;;;5095374;28;20003;-76
2021/06/21 12:21:36;;;;;;;;;;;15.10;99.90;;;;;;5094629;28;20327;-76
2021/06/21 12:24:14;;;;;;;;;;;15.00;99.90;;;;;;5095400;28;19953;-76
2021/06/21 12:26:39;;;;;;;;;;;14.90;99.90;;;;;;5095269;28;19950;-75
2021/06/21 12:29:23;;;;;;;;;;;15.00;99.90;;;;;;5094361;28;19969;-74
2021/06/21 12:31:49;;;;;;;;;;;15.10;99.90;;;;;;5095341;28;19991;-77
2021/06/21 12:34:15;;;;;;;;;;;15.30;99.90;;;;;;5095318;28;19908;-76
2021/06/21 12:36:40;;;;;;;;;;;15.40;99.90;;;;;;5094491;28;19953;-77
2021/06/21 12:39:06;;;;;;;;;;;15.60;99.90;;;;;;5094996;28;19916;-77
2021/06/21 12:41:33;;;;;;;;;;;15.70;99.90;;;;;;5095060;28;19920;-74
2021/06/21 12:44:09;;;;;;;;;;;15.80;99.90;;;;;;5094524;28;19916;-76
2021/06/21 12:46:36;;;;;;;;;;;16.00;99.90;;;;;;5094968;28;19908;-74
2021/06/21 12:49:06;;;;;;;;;;;15.90;99.90;;;;;;5093830;28;19953;-75
2021/06/21 12:51:32;;;;;;;;;;;15.90;99.90;;;;;;5093840;28;19912;-75
2021/06/21 12:53:59;;;;;;;;;;;15.90;99.90;;;;;;5094652;28;20396;-75
2021/06/21 12:56:26;;;;;;;;;;;15.90;99.90;;;;;;5093846;28;19944;-75
2021/06/21 12:58:52;;;;;;;;;;;15.90;99.90;;;;;;5094676;28;19923;-75
2021/06/21 13:01:34;;;;;;;;;;;15.80;99.90;;;;;;5094423;28;19912;-75
2021/06/21 13:04:01;;;;;;;;;;;15.70;99.90;;;;;;5093578;28;20037;-74
2021/06/21 13:06:30;;;;;;;;;;;15.70;99.90;;;;;;5094416;28;19909;-74
2021/06/21 13:09:06;;;;;;;;;;;15.80;99.90;;;;;;5094434;28;19914;-74
2021/06/21 13:11:46;;;;;;;;;;;15.70;99.90;;;;;;5093353;28;19916;-75
2021/06/21 13:14:12;;;;;;;;;;;15.80;99.90;;;;;;5094358;28;19909;-74
2021/06/21 13:16:37;;;;;;;;;;;15.80;99.90;;;;;;5094199;28;19914;-74
2021/06/21 13:19:09;;;;;;;;;;;15.80;99.90;;;;;;5093589;28;19920;-74
2021/06/21 13:21:35;;;;;;;;;;;15.80;99.90;;;;;;5094160;28;19959;-74
2021/06/21 13:24:01;;;;;;;;;;;15.80;99.90;;;;;;5094396;28;19908;-74
2021/06/21 13:26:30;;;;;;;;;;;15.70;99.90;;;;;;5093369;28;19908;-73
2021/06/21 13:28:56;;;;;;;;;;;15.70;99.90;;;;;;5094097;28;20367;-73
2021/06/21 13:31:22;;;;;;;;;;;15.70;99.90;;;;;;5093308;28;19962;-74
2021/06/21 13:33:48;;;;;;;;;;;15.70;99.90;;;;;;5094319;28;19916;-74
2021/06/21 13:36:14;;;;;;;;;;;15.70;99.90;;;;;;5093893;28;19908;-74
2021/06/21 13:38:43;;;;;;;;;;;15.70;99.90;;;;;;5093113;28;19923;-74
2021/06/21 13:41:22;;;;;;;;;;;15.70;99.90;;;;;;5092966;28;20858;-74
2021/06/21 13:43:48;;;;;;;;;;;15.70;99.90;;;;;;5093822;28;20004;-74
2021/06/21 13:46:18;;;;;;;;;;;15.70;99.90;;;;;;5093016;28;19957;-75
2021/06/21 13:48:45;;;;;;;;;;;15.80;99.90;;;;;;5093613;28;19980;-75
2021/06/21 13:51:15;;;;;;;;;;;15.90;99.90;;;;;;5093924;28;20014;-74
2021/06/21 13:53:41;;;;;;;;;;;15.90;99.90;;;;;;5093005;28;19908;-73
2021/06/21 13:56:07;;;;;;;;;;;15.80;99.90;;;;;;5093638;28;20385;-75
2021/06/21 13:58:37;;;;;;;;;;;15.80;99.90;;;;;;5093585;28;20400;-75
2021/06/21 14:01:13;;;;;;;;;;;15.70;99.90;;;;;;5092832;28;19931;-74
2021/06/21 14:03:42;;;;;;;;;;;15.70;99.90;;;;;;5093278;28;19908;-75
2021/06/21 14:06:07;;;;;;;;;;;15.80;99.90;;;;;;5093448;28;19908;-73
2021/06/21 14:08:34;;;;;;;;;;;15.80;99.90;;;;;;5092707;28;19961;-73
2021/06/21 14:11:07;;;;;;;;;;;16.00;99.90;;;;;;5093428;28;19908;-73
2021/06/21 14:13:32;;;;;;;;;;;16.00;99.90;;;;;;5092697;28;19958;-72
2021/06/21 14:15:58;;;;;;;;;;;16.00;99.90;;;;;;5093335;28;19909;-74
2021/06/21 14:18:25;;;;;;;;;;;16.00;99.90;;;;;;5093281;28;19920;-73
2021/06/21 14:20:50;;;;;;;;;;;16.00;99.90;;;;;;5092606;28;20276;-73
2021/06/21 14:23:16;;;;;;;;;;;16.10;99.90;;;;;;5093430;28;20019;-73